createdAt,value
2022-11-20T00:00:18.841Z,11.32
2022-11-20T00:05:18.163Z,9.65
2022-11-20T00:10:17.086Z,11.52
2022-11-20T00:15:16.235Z,10.45
2022-11-20T00:20:16.065Z,9.45
2022-11-20T00:25:15.650Z,10.25
2022-11-20T00:30:15.373Z,10.75
2022-11-20T00:35:14.383Z,9.80
2022-11-20T00:40:13.684Z,8.98
2022-11-20T00:45:12.702Z,9.68
2022-11-20T00:50:11.514Z,7.80
2022-11-20T00:55:10.514Z,7.97
2022-11-20T01:00:09.984Z,9.35
2022-11-20T01:05:11.391Z,8.77
2022-11-20T01:10:10.387Z,8.27
2022-11-20T01:15:09.958Z,7.15
2022-11-20T01:20:09.443Z,8.65
2022-11-20T01:25:08.499Z,7.82
2022-11-20T01:30:08.014Z,7.95
2022-11-20T01:35:07.013Z,7.63
2022-11-20T01:40:06.618Z,7.45
2022-11-20T01:46:03.913Z,7.55
2022-11-20T01:51:05.117Z,7.70
2022-11-20T01:56:09.279Z,7.30
2022-11-20T02:06:56.621Z,7.72
2022-11-20T02:11:56.467Z,7.80
2022-11-20T02:16:55.975Z,6.07
2022-11-20T02:22:20.882Z,7.85
2022-11-20T02:27:19.917Z,6.10
2022-11-20T02:32:23.490Z,4.72
2022-11-20T02:37:22.958Z,5.13
2022-11-20T02:42:21.694Z,5.50
2022-11-20T02:47:20.793Z,6.15
2022-11-20T02:52:19.545Z,6.13
2022-11-20T02:57:18.627Z,5.80
2022-11-20T03:02:17.418Z,6.30
2022-11-20T03:07:16.542Z,6.00
2022-11-20T03:12:15.906Z,5.18
2022-11-20T03:17:14.801Z,5.82
2022-11-20T03:22:13.603Z,5.70
2022-11-20T03:27:12.491Z,5.72
2022-11-20T03:32:11.249Z,5.55
2022-11-20T03:37:10.528Z,5.80
2022-11-20T03:42:30.298Z,5.25
2022-11-20T03:47:29.555Z,5.25
2022-11-20T03:52:28.315Z,4.70
2022-11-20T03:57:27.108Z,4.40
2022-11-20T04:02:25.890Z,5.43
2022-11-20T04:07:24.762Z,5.10
2022-11-20T04:12:23.572Z,5.15
2022-11-20T04:17:22.432Z,5.20
2022-11-20T04:22:21.237Z,4.78
2022-11-20T04:27:20.168Z,5.20
2022-11-20T04:32:18.885Z,5.30
2022-11-20T04:37:17.716Z,5.40
2022-11-20T04:42:31.550Z,5.32
2022-11-20T04:47:30.485Z,6.35
2022-11-20T04:52:29.237Z,6.10
2022-11-20T04:57:28.007Z,5.40
2022-11-20T05:02:26.774Z,5.57
2022-11-20T05:07:25.629Z,4.97
2022-11-20T05:12:24.651Z,6.20
2022-11-20T05:17:23.528Z,4.72
2022-11-20T05:22:22.274Z,4.38
2022-11-20T05:27:21.524Z,4.20
2022-11-20T05:32:20.260Z,4.80
2022-11-20T05:37:19.081Z,4.57
2022-11-20T05:42:33.078Z,3.85
2022-11-20T05:47:35.290Z,4.13
2022-11-20T05:52:34.051Z,4.05
2022-11-20T05:57:33.148Z,5.13
2022-11-20T06:02:36.016Z,4.40
2022-11-20T06:07:34.908Z,3.53
2022-11-20T06:12:34.278Z,4.18
2022-11-20T06:17:33.273Z,4.70
2022-11-20T06:22:33.205Z,4.00
2022-11-20T06:27:32.026Z,4.15
2022-11-20T06:32:30.788Z,3.95
2022-11-20T06:37:29.582Z,4.95
2022-11-20T06:42:28.304Z,5.50
2022-11-20T06:47:27.116Z,5.75
2022-11-20T06:52:25.860Z,5.60
2022-11-20T06:57:24.767Z,6.15
2022-11-20T07:02:23.521Z,6.00
2022-11-20T07:07:22.398Z,5.85
2022-11-20T07:12:21.700Z,5.15
2022-11-20T07:17:20.544Z,5.43
2022-11-20T07:22:19.452Z,6.53
2022-11-20T07:27:18.329Z,6.80
2022-11-20T07:32:17.227Z,6.43
2022-11-20T07:37:16.928Z,6.55
2022-11-20T07:42:15.725Z,6.50
2022-11-20T07:47:14.706Z,7.03
2022-11-20T07:52:13.670Z,8.05
2022-11-20T07:57:12.514Z,8.45
2022-11-20T08:02:12.239Z,8.43
2022-11-20T08:07:11.070Z,7.57
2022-11-20T08:12:38.014Z,7.70
2022-11-20T08:17:36.907Z,8.57
2022-11-20T08:22:35.888Z,8.93
2022-11-20T08:27:34.893Z,10.30
2022-11-20T08:32:36.782Z,11.35
2022-11-20T08:37:35.680Z,11.02
2022-11-20T08:42:34.411Z,11.20
2022-11-20T08:47:33.355Z,11.35
2022-11-20T08:52:33.469Z,10.15
2022-11-20T08:57:38.585Z,11.80
2022-11-20T09:02:37.574Z,11.75
2022-11-20T09:07:36.366Z,12.07
2022-11-20T09:12:35.221Z,11.35
2022-11-20T09:17:34.037Z,10.88
2022-11-20T09:22:33.806Z,9.18
2022-11-20T09:27:32.619Z,9.93
2022-11-20T09:32:31.535Z,16.98
2022-11-20T09:37:30.237Z,10.70
2022-11-20T09:42:34.881Z,10.20
2022-11-20T09:47:51.732Z,11.65
2022-11-20T09:52:56.879Z,11.43
2022-11-20T09:57:57.301Z,9.98
2022-11-20T10:03:06.842Z,9.57
2022-11-20T10:08:25.777Z,10.23
2022-11-20T10:13:59.938Z,9.45
2022-11-20T10:19:18.873Z,10.50
2022-11-20T10:24:45.326Z,9.00
2022-11-20T10:29:53.872Z,8.05
2022-11-20T10:35:02.645Z,7.82
2022-11-20T10:40:44.792Z,8.18
2022-11-20T10:45:56.248Z,7.93
2022-11-20T10:51:19.613Z,7.47
2022-11-20T10:56:30.977Z,8.48
2022-11-20T11:01:30.028Z,8.90
2022-11-20T11:06:48.066Z,8.02
2022-11-20T11:11:46.907Z,7.55
2022-11-20T11:16:54.297Z,7.40
2022-11-20T11:21:57.530Z,7.22
2022-11-20T11:27:05.531Z,7.75
2022-11-20T11:32:06.501Z,8.02
2022-11-20T11:37:11.431Z,6.60
2022-11-20T11:42:17.095Z,6.40
2022-11-20T11:47:26.698Z,6.53
2022-11-20T11:52:26.822Z,6.50
2022-11-20T11:57:55.694Z,5.05
2022-11-20T12:02:58.638Z,3.80
2022-11-20T12:08:12.854Z,4.13
2022-11-20T12:13:12.045Z,4.90
2022-11-20T12:18:22.250Z,5.53
2022-11-20T12:23:53.584Z,5.35
2022-11-20T12:29:28.535Z,4.50
2022-11-20T12:34:36.350Z,4.75
2022-11-20T12:39:43.568Z,5.22
2022-11-20T12:45:16.304Z,4.05
2022-11-20T12:50:30.634Z,5.30
2022-11-20T12:55:43.882Z,5.57
2022-11-20T13:00:56.722Z,5.75
2022-11-20T13:06:18.464Z,5.93
2022-11-20T13:11:20.087Z,5.93
2022-11-20T13:16:28.470Z,6.10
2022-11-20T13:21:47.295Z,6.38
2022-11-20T13:26:46.917Z,6.63
2022-11-20T13:31:48.866Z,6.50
2022-11-20T13:36:52.267Z,6.18
2022-11-20T13:42:00.586Z,5.80
2022-11-20T13:46:59.480Z,5.53
2022-11-20T13:52:07.034Z,6.47
2022-11-20T13:57:24.711Z,6.35
2022-11-20T14:02:26.493Z,5.93
2022-11-20T14:07:33.020Z,4.38
2022-11-20T14:12:34.048Z,5.78
2022-11-20T14:17:35.508Z,4.15
2022-11-20T14:22:34.445Z,4.63
2022-11-20T14:27:42.131Z,3.78
2022-11-20T14:32:43.113Z,4.25
2022-11-20T14:37:42.390Z,3.55
2022-11-20T14:42:44.869Z,4.75
2022-11-20T14:47:44.636Z,5.35
2022-11-20T14:52:52.153Z,4.68
2022-11-20T14:57:57.736Z,5.70
2022-11-20T15:02:57.028Z,5.95
2022-11-20T15:08:09.214Z,4.78
2022-11-20T15:13:27.454Z,4.82
2022-11-20T15:18:39.345Z,5.30
2022-11-20T15:23:38.230Z,5.10
2022-11-20T15:28:42.316Z,6.38
2022-11-20T15:33:41.213Z,5.45
2022-11-20T15:38:39.969Z,6.97
2022-11-20T15:43:39.652Z,5.97
2022-11-20T15:48:48.269Z,7.18
2022-11-20T15:53:47.543Z,6.93
2022-11-20T15:58:46.411Z,6.68
2022-11-20T16:03:45.829Z,6.25
2022-11-20T16:08:44.772Z,6.32
2022-11-20T16:14:02.080Z,6.55
2022-11-20T16:19:01.326Z,8.00
2022-11-20T16:24:02.063Z,7.03
2022-11-20T16:29:03.538Z,9.05
2022-11-20T16:34:11.959Z,7.60
2022-11-20T16:39:17.790Z,10.10
2022-11-20T16:44:19.383Z,9.07
2022-11-20T16:49:18.503Z,9.63
2022-11-20T16:54:21.177Z,8.98
2022-11-20T16:59:20.555Z,8.60
2022-11-20T17:04:19.554Z,8.98
2022-11-20T17:09:18.434Z,7.72
2022-11-20T17:14:17.261Z,8.15
2022-11-20T17:19:16.086Z,8.15
2022-11-20T17:24:16.241Z,6.82
2022-11-20T17:29:17.547Z,9.15
2022-11-20T17:34:16.948Z,9.20
2022-11-20T17:39:17.189Z,8.85
2022-11-20T17:44:15.999Z,8.95
2022-11-20T17:49:16.961Z,8.88
2022-11-20T17:54:17.750Z,9.38
2022-11-20T17:59:18.629Z,8.45
2022-11-20T18:04:17.627Z,9.23
2022-11-20T18:09:16.918Z,8.18
2022-11-20T18:14:32.871Z,8.95
2022-11-20T18:19:42.567Z,7.30
2022-11-20T18:24:50.338Z,8.93
2022-11-20T18:29:51.935Z,9.40
2022-11-20T18:34:51.348Z,9.60
2022-11-20T18:39:50.520Z,11.63
2022-11-20T18:44:53.677Z,12.57
2022-11-20T18:49:54.574Z,13.35
2022-11-20T19:00:21.814Z,11.90
2022-11-20T19:05:21.063Z,12.30
2022-11-20T19:10:20.475Z,14.45
2022-11-20T19:15:19.423Z,12.00
2022-11-20T19:20:19.036Z,13.23
2022-11-20T19:25:17.757Z,13.50
2022-11-20T19:30:17.376Z,13.70
2022-11-20T19:35:16.201Z,12.18
2022-11-20T19:40:14.902Z,13.68
2022-11-20T19:45:13.857Z,13.57
2022-11-20T19:50:13.090Z,13.73
2022-11-20T19:55:11.949Z,13.23
2022-11-20T20:06:38.929Z,12.95
2022-11-20T20:11:38.676Z,13.02
2022-11-20T20:16:37.596Z,13.35
2022-11-20T20:21:36.501Z,13.75
2022-11-20T20:26:35.174Z,12.55
2022-11-20T20:36:31.410Z,12.60
2022-11-20T20:41:31.038Z,13.45
2022-11-20T20:46:29.986Z,12.32
2022-11-20T20:51:28.781Z,12.55
2022-11-20T20:56:28.066Z,12.18
2022-11-20T21:01:28.716Z,12.88
2022-11-20T21:06:27.835Z,10.75
2022-11-20T21:11:26.576Z,12.57
2022-11-20T21:16:25.399Z,12.63
2022-11-20T21:21:42.807Z,12.82
2022-11-20T21:26:41.572Z,13.27
2022-11-20T21:31:40.270Z,12.48
2022-11-20T21:36:39.157Z,12.77
2022-11-20T21:41:38.784Z,13.38
2022-11-20T21:46:39.947Z,12.57
2022-11-20T21:51:38.952Z,10.95
2022-11-20T21:56:37.774Z,12.35
2022-11-20T22:01:36.615Z,13.63
2022-11-20T22:06:35.456Z,14.45
2022-11-20T22:11:34.145Z,13.18
2022-11-20T22:16:34.486Z,11.13
2022-11-20T22:21:34.328Z,13.93
2022-11-20T22:26:39.870Z,13.30
2022-11-20T22:31:39.192Z,11.00
2022-11-20T22:36:39.477Z,12.27
2022-11-20T22:41:38.357Z,12.90
2022-11-20T22:46:38.442Z,15.02
2022-11-20T22:51:39.603Z,13.63
2022-11-20T22:56:38.617Z,15.35
2022-11-20T23:01:37.935Z,14.43
2022-11-20T23:06:37.107Z,14.82
2022-11-20T23:11:36.417Z,16.52
2022-11-20T23:16:35.617Z,16.42
2022-11-20T23:21:37.241Z,15.90
2022-11-20T23:26:38.523Z,16.55
2022-11-20T23:31:37.299Z,17.70
2022-11-20T23:36:36.784Z,16.48
2022-11-20T23:41:35.547Z,17.58
2022-11-20T23:46:34.293Z,17.08
2022-11-20T23:51:33.014Z,17.33
2022-11-20T23:56:31.756Z,16.60
